createdAt,value
2023-09-20T00:01:52.177Z,1.90
2023-09-20T00:04:18.522Z,2.10
2023-09-20T00:06:44.776Z,2.13
2023-09-20T00:09:11.168Z,1.98
2023-09-20T00:11:37.451Z,2.30
2023-09-20T00:14:03.841Z,1.85
2023-09-20T00:16:30.185Z,1.83
2023-09-20T00:18:56.460Z,1.90
2023-09-20T00:21:23.567Z,2.65
2023-09-20T00:23:49.844Z,2.38
2023-09-20T00:26:19.090Z,1.90
2023-09-20T00:28:49.636Z,2.30
2023-09-20T00:31:16.802Z,1.85
2023-09-20T00:33:46.198Z,2.00
2023-09-20T00:36:18.318Z,2.15
2023-09-20T00:38:46.421Z,2.05
2023-09-20T00:41:12.759Z,1.80
2023-09-20T00:43:39.680Z,2.20
2023-09-20T00:46:06.222Z,2.58
2023-09-20T00:48:32.667Z,2.53
2023-09-20T00:50:59.353Z,2.10
2023-09-20T00:53:26.561Z,2.30
2023-09-20T00:55:53.175Z,2.10
2023-09-20T00:58:20.729Z,2.40
2023-09-20T01:00:47.835Z,2.20
2023-09-20T01:03:20.632Z,1.98
2023-09-20T01:05:48.858Z,2.38
2023-09-20T01:08:20.339Z,2.33
2023-09-20T01:13:20.207Z,2.03
2023-09-20T01:15:47.381Z,2.22
2023-09-20T01:18:13.766Z,2.20
2023-09-20T01:20:41.915Z,2.03
2023-09-20T01:23:08.357Z,2.38
2023-09-20T01:25:39.851Z,2.50
2023-09-20T01:28:07.316Z,2.72
2023-09-20T01:30:35.185Z,2.55
2023-09-20T01:33:03.014Z,2.40
2023-09-20T01:35:30.442Z,2.70
2023-09-20T01:37:57.121Z,2.42
2023-09-20T01:40:29.946Z,2.67
2023-09-20T01:42:59.386Z,2.50
2023-09-20T01:45:25.843Z,2.33
2023-09-20T01:47:53.336Z,2.10
2023-09-20T01:50:26.894Z,2.75
2023-09-20T01:52:54.017Z,2.80
2023-09-20T01:55:24.230Z,2.47
2023-09-20T01:57:51.265Z,2.20
2023-09-20T02:00:19.594Z,2.67
2023-09-20T02:02:46.120Z,2.50
2023-09-20T02:05:18.190Z,2.22
2023-09-20T02:07:46.411Z,2.20
2023-09-20T02:10:12.992Z,2.53
2023-09-20T02:12:39.299Z,2.58
2023-09-20T02:15:08.536Z,1.73
2023-09-20T02:17:36.431Z,2.70
2023-09-20T02:20:09.890Z,2.20
2023-09-20T02:22:37.953Z,2.50
2023-09-20T02:25:07.079Z,2.33
2023-09-20T02:27:35.204Z,2.75
2023-09-20T02:30:01.520Z,2.40
2023-09-20T02:32:28.385Z,2.30
2023-09-20T02:34:54.720Z,2.40
2023-09-20T02:37:21.001Z,2.80
2023-09-20T02:39:47.436Z,2.50
2023-09-20T02:42:14.910Z,2.17
2023-09-20T02:44:41.682Z,2.50
2023-09-20T02:47:08.540Z,2.20
2023-09-20T02:49:34.922Z,2.40
2023-09-20T02:52:01.198Z,2.30
2023-09-20T02:54:27.524Z,2.58
2023-09-20T02:56:54.356Z,2.80
2023-09-20T02:59:21.210Z,2.60
2023-09-20T03:01:48.258Z,2.60
2023-09-20T03:04:14.686Z,3.10
2023-09-20T03:06:41.208Z,2.72
2023-09-20T03:09:08.057Z,2.80
2023-09-20T03:11:36.984Z,2.70
2023-09-20T03:14:04.578Z,2.65
2023-09-20T03:16:31.127Z,2.70
2023-09-20T03:18:57.416Z,2.80
2023-09-20T03:21:24.453Z,2.78
2023-09-20T03:23:50.765Z,2.58
2023-09-20T03:26:17.472Z,2.97
2023-09-20T03:28:44.618Z,2.70
2023-09-20T03:31:13.064Z,2.33
2023-09-20T03:33:39.749Z,2.50
2023-09-20T03:36:16.140Z,2.55
2023-09-20T03:38:42.837Z,2.50
2023-09-20T03:41:10.484Z,2.30
2023-09-20T03:43:37.052Z,2.83
2023-09-20T03:46:03.611Z,2.53
2023-09-20T03:48:29.923Z,2.47
2023-09-20T03:50:56.234Z,2.60
2023-09-20T03:53:22.660Z,3.20
2023-09-20T03:55:50.121Z,2.53
2023-09-20T03:58:16.873Z,2.38
2023-09-20T04:00:46.104Z,2.38
2023-09-20T04:03:13.233Z,2.50
2023-09-20T04:05:46.087Z,2.83
2023-09-20T04:08:13.690Z,2.28
2023-09-20T04:10:41.272Z,2.67
2023-09-20T04:13:07.726Z,2.70
2023-09-20T04:15:34.524Z,2.78
2023-09-20T04:18:02.266Z,2.30
2023-09-20T04:20:28.708Z,2.22
2023-09-20T04:22:55.110Z,2.40
2023-09-20T04:25:21.477Z,2.40
2023-09-20T04:27:47.961Z,2.22
2023-09-20T04:30:15.171Z,2.60
2023-09-20T04:32:42.152Z,2.38
2023-09-20T04:35:08.737Z,2.65
2023-09-20T04:37:35.883Z,2.70
2023-09-20T04:40:02.162Z,2.58
2023-09-20T04:42:28.647Z,2.47
2023-09-20T04:44:54.931Z,2.20
2023-09-20T04:47:21.285Z,2.30
2023-09-20T04:49:47.740Z,2.67
2023-09-20T04:52:16.732Z,2.63
2023-09-20T04:54:44.704Z,2.30
2023-09-20T04:57:14.241Z,2.30
2023-09-20T04:59:43.741Z,2.70
2023-09-20T05:02:11.986Z,2.50
2023-09-20T05:04:39.482Z,2.50
2023-09-20T05:07:06.469Z,2.60
2023-09-20T05:09:36.088Z,2.50
2023-09-20T05:12:05.997Z,2.47
2023-09-20T05:14:32.871Z,2.38
2023-09-20T05:16:59.373Z,2.33
2023-09-20T05:19:25.726Z,2.42
2023-09-20T05:21:52.233Z,2.25
2023-09-20T05:24:18.529Z,2.40
2023-09-20T05:26:45.159Z,2.88
2023-09-20T05:29:11.701Z,2.50
2023-09-20T05:31:38.226Z,2.60
2023-09-20T05:34:06.280Z,2.45
2023-09-20T05:36:32.932Z,2.20
2023-09-20T05:38:59.321Z,2.60
2023-09-20T05:41:26.438Z,2.50
2023-09-20T05:43:53.035Z,2.25
2023-09-20T05:46:20.020Z,2.70
2023-09-20T05:48:49.497Z,2.30
2023-09-20T05:51:16.494Z,2.30
2023-09-20T05:53:45.841Z,2.47
2023-09-20T05:56:12.449Z,2.17
2023-09-20T05:58:41.328Z,2.60
2023-09-20T06:01:10.296Z,2.30
2023-09-20T06:03:37.495Z,2.50
2023-09-20T06:06:05.611Z,2.28
2023-09-20T06:08:31.972Z,2.40
2023-09-20T06:10:59.228Z,2.83
2023-09-20T06:13:25.628Z,2.58
2023-09-20T06:15:51.887Z,2.20
2023-09-20T06:18:18.765Z,2.55
2023-09-20T06:20:51.935Z,2.50
2023-09-20T06:23:19.589Z,2.63
2023-09-20T06:25:48.578Z,2.65
2023-09-20T06:28:15.291Z,2.85
2023-09-20T06:30:42.630Z,2.75
2023-09-20T06:33:09.665Z,2.50
2023-09-20T06:35:42.523Z,3.03
2023-09-20T06:38:10.407Z,2.42
2023-09-20T06:40:40.286Z,2.50
2023-09-20T06:43:09.801Z,2.45
2023-09-20T06:45:36.347Z,2.88
2023-09-20T06:48:03.675Z,2.70
2023-09-20T06:50:30.896Z,2.53
2023-09-20T06:52:57.290Z,2.42
2023-09-20T06:55:26.442Z,2.78
2023-09-20T06:58:01.813Z,2.38
2023-09-20T07:00:39.828Z,2.05
2023-09-20T07:03:06.782Z,2.92
2023-09-20T07:05:33.321Z,2.35
2023-09-20T07:08:00.212Z,2.60
2023-09-20T07:10:27.813Z,2.15
2023-09-20T07:12:57.041Z,2.22
2023-09-20T07:15:26.135Z,2.30
2023-09-20T07:18:07.895Z,2.25
2023-09-20T07:20:35.188Z,1.88
2023-09-20T07:23:01.551Z,2.40
2023-09-20T07:25:30.926Z,2.40
2023-09-20T07:28:00.210Z,2.28
2023-09-20T07:30:32.312Z,2.45
2023-09-20T07:33:11.196Z,2.13
2023-09-20T07:35:48.544Z,2.20
2023-09-20T07:38:21.806Z,2.53
2023-09-20T07:40:51.457Z,2.20
2023-09-20T07:43:29.246Z,2.10
2023-09-20T07:45:56.267Z,2.58
2023-09-20T07:48:23.624Z,2.60
2023-09-20T07:50:50.419Z,2.38
2023-09-20T07:53:18.045Z,2.22
2023-09-20T07:55:46.316Z,2.28
2023-09-20T07:58:14.522Z,2.13
2023-09-20T08:00:42.252Z,2.13
2023-09-20T08:03:09.416Z,2.22
2023-09-20T08:05:36.091Z,2.50
2023-09-20T08:08:02.619Z,2.13
2023-09-20T08:10:29.230Z,1.98
2023-09-20T08:12:55.726Z,2.20
2023-09-20T08:15:22.114Z,1.92
2023-09-20T08:18:07.185Z,2.20
2023-09-20T08:20:38.507Z,2.35
2023-09-20T08:23:23.737Z,2.60
2023-09-20T08:26:08.413Z,2.17
2023-09-20T08:28:53.292Z,2.30
2023-09-20T08:31:38.198Z,2.15
2023-09-20T08:34:23.264Z,2.10
2023-09-20T08:37:08.084Z,2.30
2023-09-20T08:39:52.923Z,2.55
2023-09-20T08:42:37.883Z,1.70
2023-09-20T08:45:23.283Z,2.17
2023-09-20T08:48:08.663Z,2.83
2023-09-20T08:50:54.390Z,2.70
2023-09-20T08:53:39.261Z,2.05
2023-09-20T08:56:24.067Z,2.38
2023-09-20T08:59:08.941Z,1.95
2023-09-20T09:01:38.798Z,2.08
2023-09-20T09:04:09.509Z,1.88
2023-09-20T09:06:36.074Z,2.17
2023-09-20T09:09:05.226Z,1.70
2023-09-20T09:11:31.936Z,1.90
2023-09-20T09:14:01.849Z,2.00
2023-09-20T09:16:32.002Z,2.10
2023-09-20T09:18:58.400Z,1.77
2023-09-20T09:21:26.074Z,1.60
2023-09-20T09:23:52.648Z,1.85
2023-09-20T09:26:19.018Z,1.65
2023-09-20T09:28:45.950Z,2.00
2023-09-20T09:31:14.166Z,1.70
2023-09-20T09:33:40.735Z,1.80
2023-09-20T09:36:07.597Z,1.65
2023-09-20T09:38:36.014Z,1.70
2023-09-20T09:41:03.318Z,1.73
2023-09-20T09:43:30.342Z,1.60
2023-09-20T09:46:06.775Z,1.48
2023-09-20T09:48:33.985Z,1.50
2023-09-20T09:51:05.409Z,1.33
2023-09-20T09:53:33.005Z,1.33
2023-09-20T09:56:01.055Z,1.08
2023-09-20T09:58:27.689Z,1.10
2023-09-20T10:00:56.319Z,1.10
2023-09-20T10:03:25.849Z,1.05
2023-09-20T10:05:54.575Z,1.40
2023-09-20T10:08:22.139Z,1.10
2023-09-20T10:10:48.452Z,1.17
2023-09-20T10:13:15.111Z,1.05
2023-09-20T10:15:44.361Z,1.10
2023-09-20T10:18:12.073Z,1.33
2023-09-20T10:20:59.273Z,1.60
2023-09-20T10:23:27.173Z,1.20
2023-09-20T10:25:57.212Z,1.10
2023-09-20T10:28:25.889Z,1.13
2023-09-20T10:31:04.306Z,1.17
2023-09-20T10:33:46.711Z,1.13
2023-09-20T10:36:15.505Z,1.27
2023-09-20T10:38:46.104Z,1.20
2023-09-20T10:41:13.838Z,1.50
2023-09-20T10:43:42.083Z,1.20
2023-09-20T10:46:18.735Z,1.20
2023-09-20T10:48:50.021Z,1.10
2023-09-20T10:51:35.450Z,1.25
2023-09-20T10:54:04.210Z,1.10
2023-09-20T10:56:44.298Z,1.10
2023-09-20T10:59:15.657Z,1.33
2023-09-20T11:04:09.224Z,1.58
2023-09-20T11:06:36.081Z,1.50
2023-09-20T11:09:09.553Z,1.27
2023-09-20T11:11:38.275Z,1.10
2023-09-20T11:14:04.694Z,1.27
2023-09-20T11:16:31.617Z,1.67
2023-09-20T11:18:58.829Z,1.30
2023-09-20T11:21:25.900Z,1.63
2023-09-20T11:23:52.530Z,1.38
2023-09-20T11:26:41.249Z,1.15
2023-09-20T11:29:11.489Z,1.17
2023-09-20T11:31:38.749Z,1.40
2023-09-20T11:34:06.845Z,1.42
2023-09-20T11:36:41.610Z,1.25
2023-09-20T11:39:07.938Z,1.48
2023-09-20T11:41:34.500Z,1.33
2023-09-20T11:44:01.488Z,1.40
2023-09-20T11:46:28.523Z,1.45
2023-09-20T11:48:59.794Z,1.23
2023-09-20T11:53:53.413Z,1.42
2023-09-20T11:56:32.266Z,1.63
2023-09-20T11:59:19.353Z,1.20
2023-09-20T12:01:46.841Z,1.52
2023-09-20T12:04:14.859Z,1.63
2023-09-20T12:06:41.504Z,1.50
2023-09-20T12:09:07.815Z,1.23
2023-09-20T12:11:34.130Z,1.50
2023-09-20T12:14:00.546Z,1.40
2023-09-20T12:16:26.921Z,1.40
2023-09-20T12:18:55.531Z,1.38
2023-09-20T12:21:22.642Z,1.48
2023-09-20T12:23:49.011Z,1.67
2023-09-20T12:26:16.139Z,1.40
2023-09-20T12:28:42.727Z,1.65
2023-09-20T12:31:09.880Z,1.67
2023-09-20T12:33:36.975Z,1.45
2023-09-20T12:36:05.274Z,1.65
2023-09-20T12:38:31.871Z,1.48
2023-09-20T12:40:58.249Z,1.30
2023-09-20T12:43:24.738Z,1.42
2023-09-20T12:45:53.763Z,1.95
2023-09-20T12:48:20.468Z,1.58
2023-09-20T12:50:47.781Z,1.98
2023-09-20T12:53:14.318Z,1.95
2023-09-20T12:55:40.991Z,1.48
2023-09-20T12:58:09.266Z,1.55
2023-09-20T13:00:46.563Z,1.80
2023-09-20T13:03:13.876Z,1.65
2023-09-20T13:05:44.004Z,1.60
2023-09-20T13:08:20.708Z,1.92
2023-09-20T13:10:47.339Z,1.80
2023-09-20T13:13:16.084Z,1.42
2023-09-20T13:15:43.335Z,1.92
2023-09-20T13:18:13.265Z,1.73
2023-09-20T13:20:42.659Z,1.90
2023-09-20T13:23:12.330Z,2.00
2023-09-20T13:25:41.046Z,1.67
2023-09-20T13:28:09.153Z,2.03
2023-09-20T13:30:36.664Z,2.00
2023-09-20T13:33:03.138Z,1.90
2023-09-20T13:35:29.647Z,1.80
2023-09-20T13:37:55.996Z,2.20
2023-09-20T13:40:25.345Z,2.30
2023-09-20T13:42:51.756Z,1.95
2023-09-20T13:45:22.822Z,2.10
2023-09-20T13:47:50.969Z,1.85
2023-09-20T13:50:18.320Z,1.80
2023-09-20T13:52:45.256Z,2.10
2023-09-20T13:55:15.347Z,2.17
2023-09-20T13:57:42.225Z,2.03
2023-09-20T14:00:14.891Z,1.98
2023-09-20T14:02:41.845Z,2.05
2023-09-20T14:05:15.496Z,1.98
2023-09-20T14:07:45.986Z,1.90
2023-09-20T14:10:13.347Z,2.10
2023-09-20T14:12:42.112Z,1.90
2023-09-20T14:15:11.503Z,1.90
2023-09-20T14:17:38.269Z,2.20
2023-09-20T14:20:10.563Z,2.10
2023-09-20T14:22:38.142Z,2.35
2023-09-20T14:25:05.868Z,1.92
2023-09-20T14:27:32.151Z,1.95
2023-09-20T14:29:58.507Z,2.50
2023-09-20T14:32:24.955Z,2.13
2023-09-20T14:34:51.308Z,2.00
2023-09-20T14:37:17.724Z,1.80
2023-09-20T14:39:44.018Z,2.05
2023-09-20T14:42:10.436Z,1.80
2023-09-20T14:44:36.719Z,1.80
2023-09-20T14:47:05.814Z,1.92
2023-09-20T14:49:32.976Z,1.90
2023-09-20T14:52:02.984Z,2.00
2023-09-20T14:54:29.356Z,1.73
2023-09-20T14:56:57.584Z,1.75
2023-09-20T14:59:23.940Z,1.80
2023-09-20T15:01:50.631Z,1.60
2023-09-20T15:04:18.313Z,1.65
2023-09-20T15:06:45.021Z,1.77
2023-09-20T15:09:16.234Z,1.85
2023-09-20T15:11:46.092Z,2.08
2023-09-20T15:14:12.457Z,2.15
2023-09-20T15:16:39.141Z,1.65
2023-09-20T15:19:05.498Z,1.73
2023-09-20T15:21:31.846Z,1.60
2023-09-20T15:23:58.177Z,1.60
2023-09-20T15:26:25.634Z,1.83
2023-09-20T15:28:52.097Z,1.73
2023-09-20T15:31:21.547Z,2.00
2023-09-20T15:33:49.799Z,1.90
2023-09-20T15:36:21.459Z,2.00
2023-09-20T15:38:47.870Z,1.77
2023-09-20T15:41:14.812Z,2.10
2023-09-20T15:43:42.642Z,2.03
2023-09-20T15:46:09.112Z,1.80
2023-09-20T15:48:35.575Z,1.70
2023-09-20T15:51:03.056Z,1.92
2023-09-20T15:53:33.417Z,1.90
2023-09-20T15:56:03.134Z,1.80
2023-09-20T15:58:29.794Z,1.70
2023-09-20T16:00:56.159Z,1.95
2023-09-20T16:03:22.652Z,1.80
2023-09-20T16:05:49.808Z,1.85
2023-09-20T16:08:19.613Z,1.98
2023-09-20T16:10:46.386Z,2.20
2023-09-20T16:13:13.625Z,1.90
2023-09-20T16:15:40.643Z,2.28
2023-09-20T16:18:07.821Z,2.20
2023-09-20T16:20:34.359Z,2.08
2023-09-20T16:23:00.771Z,2.15
2023-09-20T16:25:27.241Z,1.75
2023-09-20T16:27:53.798Z,1.58
2023-09-20T16:30:23.095Z,1.90
2023-09-20T16:32:49.607Z,1.88
2023-09-20T16:35:16.958Z,2.38
2023-09-20T16:37:43.967Z,1.90
2023-09-20T16:40:10.594Z,2.00
2023-09-20T16:42:37.043Z,1.88
2023-09-20T16:45:03.827Z,2.13
2023-09-20T16:47:30.287Z,2.22
2023-09-20T16:49:57.181Z,1.70
2023-09-20T16:52:23.691Z,2.10
2023-09-20T16:54:50.044Z,1.83
2023-09-20T16:57:16.304Z,1.73
2023-09-20T16:59:44.052Z,1.70
2023-09-20T17:02:10.945Z,2.10
2023-09-20T17:04:37.816Z,1.80
2023-09-20T17:07:04.592Z,1.80
2023-09-20T17:09:31.495Z,1.90
2023-09-20T17:11:58.321Z,1.90
2023-09-20T17:14:25.346Z,2.42
2023-09-20T17:16:53.181Z,1.90
2023-09-20T17:19:19.878Z,2.15
2023-09-20T17:21:46.410Z,1.83
2023-09-20T17:24:15.730Z,1.98
2023-09-20T17:26:42.669Z,1.65
2023-09-20T17:29:08.989Z,1.80
2023-09-20T17:31:37.927Z,1.90
2023-09-20T17:34:06.228Z,1.80
2023-09-20T17:36:33.055Z,2.00
2023-09-20T17:38:59.416Z,2.20
2023-09-20T17:41:30.643Z,2.35
2023-09-20T17:43:59.233Z,2.22
2023-09-20T17:46:28.647Z,2.42
2023-09-20T17:48:55.258Z,2.30
2023-09-20T17:51:22.062Z,2.33
2023-09-20T17:53:48.447Z,2.97
2023-09-20T17:56:19.225Z,2.90
2023-09-20T17:58:46.361Z,2.88
2023-09-20T18:01:15.176Z,2.63
2023-09-20T18:03:42.652Z,2.22
2023-09-20T18:06:13.810Z,2.50
2023-09-20T18:08:40.807Z,2.72
2023-09-20T18:11:07.294Z,2.72
2023-09-20T18:13:33.622Z,2.17
2023-09-20T18:15:59.947Z,2.33
2023-09-20T18:18:26.390Z,2.53
2023-09-20T18:20:55.817Z,3.33
2023-09-20T18:23:25.786Z,3.00
2023-09-20T18:25:55.151Z,2.67
2023-09-20T18:28:21.488Z,3.40
2023-09-20T18:30:48.943Z,2.80
2023-09-20T18:33:15.478Z,2.80
2023-09-20T18:35:42.206Z,2.70
2023-09-20T18:38:14.464Z,2.88
2023-09-20T18:40:41.148Z,2.40
2023-09-20T18:43:07.609Z,2.58
2023-09-20T18:45:36.027Z,2.72
2023-09-20T18:48:02.409Z,2.63
2023-09-20T18:50:30.296Z,2.38
2023-09-20T18:52:56.872Z,2.47
2023-09-20T18:55:25.192Z,2.55
2023-09-20T18:57:52.472Z,2.35
2023-09-20T19:00:19.822Z,2.47
2023-09-20T19:02:46.496Z,2.25
2023-09-20T19:05:15.939Z,2.33
2023-09-20T19:07:45.136Z,2.65
2023-09-20T19:10:12.900Z,2.40
2023-09-20T19:12:45.160Z,2.28
2023-09-20T19:15:16.333Z,2.10
2023-09-20T19:17:44.181Z,2.08
2023-09-20T19:20:16.350Z,2.20
2023-09-20T19:22:46.259Z,2.30
2023-09-20T19:25:14.156Z,2.20
2023-09-20T19:27:42.182Z,2.20
2023-09-20T19:30:10.954Z,2.17
2023-09-20T19:32:37.806Z,2.42
2023-09-20T19:35:04.829Z,2.33
2023-09-20T19:37:34.027Z,2.50
2023-09-20T19:40:00.795Z,2.53
2023-09-20T19:42:28.674Z,2.28
2023-09-20T19:44:57.879Z,2.40
2023-09-20T19:47:24.250Z,2.50
2023-09-20T19:49:50.646Z,2.20
2023-09-20T19:52:17.244Z,2.42
2023-09-20T19:54:43.597Z,2.20
2023-09-20T19:57:10.028Z,2.83
2023-09-20T19:59:36.536Z,2.95
2023-09-20T20:02:02.821Z,2.13
2023-09-20T20:04:30.054Z,2.50
2023-09-20T20:06:56.460Z,3.63
2023-09-20T20:09:23.586Z,2.58
2023-09-20T20:11:50.038Z,2.60
2023-09-20T20:14:16.360Z,2.80
2023-09-20T20:16:42.639Z,2.35
2023-09-20T20:19:12.004Z,3.05
2023-09-20T20:21:38.408Z,2.50
2023-09-20T20:24:06.333Z,2.60
2023-09-20T20:26:36.158Z,2.40
2023-09-20T20:29:06.237Z,2.30
2023-09-20T20:31:32.592Z,2.63
2023-09-20T20:33:59.288Z,2.60
2023-09-20T20:36:25.723Z,2.67
2023-09-20T20:38:52.923Z,2.83
2023-09-20T20:41:19.848Z,2.83
2023-09-20T20:43:46.348Z,2.97
2023-09-20T20:46:16.810Z,3.03
2023-09-20T20:48:44.273Z,2.93
2023-09-20T20:51:12.229Z,2.60
2023-09-20T20:53:38.633Z,3.28
2023-09-20T20:56:05.079Z,2.90
2023-09-20T20:58:33.763Z,3.20
2023-09-20T21:01:01.441Z,2.60
2023-09-20T21:03:28.057Z,2.60
2023-09-20T21:05:54.840Z,2.80
2023-09-20T21:08:22.089Z,2.47
2023-09-20T21:10:49.016Z,2.80
2023-09-20T21:13:15.381Z,2.88
2023-09-20T21:15:42.757Z,2.72
2023-09-20T21:18:17.115Z,2.55
2023-09-20T21:20:47.111Z,2.90
2023-09-20T21:23:14.612Z,2.72
2023-09-20T21:25:41.611Z,2.58
2023-09-20T21:28:08.336Z,3.10
2023-09-20T21:30:35.174Z,2.72
2023-09-20T21:33:02.419Z,2.47
2023-09-20T21:35:30.119Z,2.40
2023-09-20T21:37:56.555Z,2.60
2023-09-20T21:40:23.311Z,2.28
2023-09-20T21:42:50.467Z,2.50
2023-09-20T21:45:17.105Z,2.55
2023-09-20T21:47:43.464Z,2.58
2023-09-20T21:50:12.979Z,3.30
2023-09-20T21:52:39.358Z,3.10
2023-09-20T21:55:07.370Z,2.63
2023-09-20T21:57:33.718Z,2.63
2023-09-20T22:00:00.119Z,2.65
2023-09-20T22:02:28.188Z,3.15
2023-09-20T22:04:56.249Z,2.55
2023-09-20T22:07:22.648Z,2.47
2023-09-20T22:09:48.971Z,2.95
2023-09-20T22:12:15.289Z,2.80
2023-09-20T22:14:44.827Z,2.50
2023-09-20T22:17:12.445Z,2.67
2023-09-20T22:19:38.829Z,2.47
2023-09-20T22:22:05.430Z,2.28
2023-09-20T22:24:31.747Z,2.40
2023-09-20T22:26:58.121Z,2.70
2023-09-20T22:29:24.820Z,2.50
2023-09-20T22:31:51.651Z,2.30
2023-09-20T22:34:18.368Z,2.47
2023-09-20T22:36:44.826Z,2.65
2023-09-20T22:39:13.083Z,2.50
2023-09-20T22:41:39.415Z,2.80
2023-09-20T22:44:09.379Z,2.53
2023-09-20T22:46:35.961Z,2.75
2023-09-20T22:49:02.864Z,2.70
2023-09-20T22:51:29.970Z,2.10
2023-09-20T22:53:57.442Z,2.50
2023-09-20T22:56:23.826Z,2.13
2023-09-20T22:58:53.660Z,2.10
2023-09-20T23:01:20.036Z,2.53
2023-09-20T23:03:47.660Z,2.50
2023-09-20T23:06:14.167Z,2.38
2023-09-20T23:08:40.669Z,2.58
2023-09-20T23:11:11.004Z,2.30
2023-09-20T23:13:38.947Z,2.50
2023-09-20T23:16:07.996Z,2.45
2023-09-20T23:18:36.094Z,2.47
2023-09-20T23:21:02.809Z,2.33
2023-09-20T23:23:29.133Z,2.50
2023-09-20T23:25:56.821Z,2.83
2023-09-20T23:28:24.445Z,2.40
2023-09-20T23:30:54.097Z,2.50
2023-09-20T23:33:28.036Z,2.50
2023-09-20T23:35:55.836Z,2.22
2023-09-20T23:38:26.227Z,2.53
2023-09-20T23:40:52.811Z,2.40
2023-09-20T23:43:19.445Z,2.42
2023-09-20T23:45:47.608Z,2.22
2023-09-20T23:48:18.511Z,2.17
2023-09-20T23:50:45.626Z,2.55
2023-09-20T23:53:11.942Z,2.40
2023-09-20T23:55:38.221Z,2.10
2023-09-20T23:58:04.679Z,2.13
